sensor_id;sensor_type;location;lat;lon;timestamp;P1;durP1;ratioP1;P2;durP2;ratioP2
29030;SDS011;16122;50.236;11.734;2023-08-20T00:01:35;10.50;;;8.90;;
29030;SDS011;16122;50.236;11.734;2023-08-20T00:04:01;11.10;;;6.90;;
29030;SDS011;16122;50.236;11.734;2023-08-20T00:06:28;8.30;;;7.57;;
29030;SDS011;16122;50.236;11.734;2023-08-20T00:08:54;11.10;;;9.10;;
29030;SDS011;16122;50.236;11.734;2023-08-20T00:11:20;10.80;;;7.30;;
29030;SDS011;16122;50.236;11.734;2023-08-20T00:13:46;9.87;;;8.30;;
29030;SDS011;16122;50.236;11.734;2023-08-20T00:16:12;8.93;;;8.03;;
29030;SDS011;16122;50.236;11.734;2023-08-20T00:18:38;10.90;;;7.60;;
29030;SDS011;16122;50.236;11.734;2023-08-20T00:21:04;8.67;;;7.80;;
29030;SDS011;16122;50.236;11.734;2023-08-20T00:23:31;7.63;;;6.90;;
29030;SDS011;16122;50.236;11.734;2023-08-20T00:25:57;9.50;;;8.40;;
29030;SDS011;16122;50.236;11.734;2023-08-20T00:28:23;10.73;;;8.70;;
29030;SDS011;16122;50.236;11.734;2023-08-20T00:30:49;8.67;;;7.97;;
29030;SDS011;16122;50.236;11.734;2023-08-20T00:33:15;8.50;;;7.70;;
29030;SDS011;16122;50.236;11.734;2023-08-20T00:35:42;8.73;;;7.93;;
29030;SDS011;16122;50.236;11.734;2023-08-20T00:38:08;8.70;;;7.90;;
29030;SDS011;16122;50.236;11.734;2023-08-20T00:40:34;9.13;;;8.33;;
29030;SDS011;16122;50.236;11.734;2023-08-20T00:42:59;9.73;;;8.93;;
29030;SDS011;16122;50.236;11.734;2023-08-20T00:45:26;12.10;;;7.43;;
29030;SDS011;16122;50.236;11.734;2023-08-20T00:47:52;9.97;;;8.87;;
29030;SDS011;16122;50.236;11.734;2023-08-20T00:50:18;7.37;;;6.77;;
29030;SDS011;16122;50.236;11.734;2023-08-20T00:52:45;9.17;;;8.10;;
29030;SDS011;16122;50.236;11.734;2023-08-20T00:55:12;9.80;;;7.80;;
29030;SDS011;16122;50.236;11.734;2023-08-20T00:57:38;9.40;;;8.57;;
29030;SDS011;16122;50.236;11.734;2023-08-20T01:00:05;9.40;;;8.50;;
29030;SDS011;16122;50.236;11.734;2023-08-20T01:02:35;9.20;;;7.70;;
29030;SDS011;16122;50.236;11.734;2023-08-20T01:05:05;9.87;;;8.17;;
29030;SDS011;16122;50.236;11.734;2023-08-20T01:10:29;9.53;;;8.53;;
29030;SDS011;16122;50.236;11.734;2023-08-20T01:12:58;13.00;;;8.17;;
29030;SDS011;16122;50.236;11.734;2023-08-20T01:15:26;10.43;;;8.17;;
29030;SDS011;16122;50.236;11.734;2023-08-20T01:17:52;8.83;;;7.97;;
29030;SDS011;16122;50.236;11.734;2023-08-20T01:20:17;8.50;;;7.57;;
29030;SDS011;16122;50.236;11.734;2023-08-20T01:22:51;9.40;;;8.50;;
29030;SDS011;16122;50.236;11.734;2023-08-20T01:25:30;12.60;;;8.63;;
29030;SDS011;16122;50.236;11.734;2023-08-20T01:28:34;9.40;;;8.53;;
29030;SDS011;16122;50.236;11.734;2023-08-20T01:31:01;8.47;;;7.67;;
29030;SDS011;16122;50.236;11.734;2023-08-20T01:33:28;11.87;;;8.83;;
29030;SDS011;16122;50.236;11.734;2023-08-20T01:35:57;9.20;;;8.30;;
29030;SDS011;16122;50.236;11.734;2023-08-20T01:38:23;9.33;;;8.43;;
29030;SDS011;16122;50.236;11.734;2023-08-20T01:40:48;8.73;;;8.00;;
29030;SDS011;16122;50.236;11.734;2023-08-20T01:43:15;9.50;;;8.60;;
29030;SDS011;16122;50.236;11.734;2023-08-20T01:45:40;8.97;;;8.07;;
29030;SDS011;16122;50.236;11.734;2023-08-20T01:48:07;9.80;;;8.90;;
29030;SDS011;16122;50.236;11.734;2023-08-20T01:50:33;10.33;;;8.67;;
29030;SDS011;16122;50.236;11.734;2023-08-20T01:53:00;10.83;;;9.40;;
29030;SDS011;16122;50.236;11.734;2023-08-20T01:55:28;9.37;;;8.43;;
29030;SDS011;16122;50.236;11.734;2023-08-20T01:57:54;11.37;;;9.57;;
29030;SDS011;16122;50.236;11.734;2023-08-20T02:00:20;10.93;;;9.70;;
29030;SDS011;16122;50.236;11.734;2023-08-20T02:02:46;9.30;;;8.40;;
29030;SDS011;16122;50.236;11.734;2023-08-20T02:05:11;9.20;;;8.30;;
29030;SDS011;16122;50.236;11.734;2023-08-20T02:07:37;11.50;;;9.50;;
29030;SDS011;16122;50.236;11.734;2023-08-20T02:10:04;13.33;;;9.10;;
29030;SDS011;16122;50.236;11.734;2023-08-20T02:12:30;10.43;;;9.37;;
29030;SDS011;16122;50.236;11.734;2023-08-20T02:14:56;10.03;;;8.97;;
29030;SDS011;16122;50.236;11.734;2023-08-20T02:17:22;12.40;;;10.23;;
29030;SDS011;16122;50.236;11.734;2023-08-20T02:19:48;9.53;;;8.53;;
29030;SDS011;16122;50.236;11.734;2023-08-20T02:22:15;9.40;;;8.50;;
29030;SDS011;16122;50.236;11.734;2023-08-20T02:24:42;9.60;;;8.67;;
29030;SDS011;16122;50.236;11.734;2023-08-20T02:27:08;15.17;;;9.10;;
29030;SDS011;16122;50.236;11.734;2023-08-20T02:29:34;9.43;;;8.53;;
29030;SDS011;16122;50.236;11.734;2023-08-20T02:32:00;10.27;;;8.87;;
29030;SDS011;16122;50.236;11.734;2023-08-20T02:34:25;10.40;;;9.40;;
29030;SDS011;16122;50.236;11.734;2023-08-20T02:36:51;13.07;;;8.67;;
29030;SDS011;16122;50.236;11.734;2023-08-20T02:39:17;10.27;;;9.20;;
29030;SDS011;16122;50.236;11.734;2023-08-20T02:41:43;9.50;;;8.50;;
29030;SDS011;16122;50.236;11.734;2023-08-20T02:44:09;10.10;;;9.10;;
29030;SDS011;16122;50.236;11.734;2023-08-20T02:46:34;10.30;;;9.30;;
29030;SDS011;16122;50.236;11.734;2023-08-20T02:49:00;9.70;;;8.70;;
29030;SDS011;16122;50.236;11.734;2023-08-20T02:51:27;10.43;;;9.33;;
29030;SDS011;16122;50.236;11.734;2023-08-20T02:53:53;9.77;;;8.87;;
29030;SDS011;16122;50.236;11.734;2023-08-20T02:56:19;10.27;;;8.80;;
29030;SDS011;16122;50.236;11.734;2023-08-20T02:58:45;10.03;;;8.67;;
29030;SDS011;16122;50.236;11.734;2023-08-20T03:01:21;10.17;;;9.10;;
29030;SDS011;16122;50.236;11.734;2023-08-20T03:03:48;10.43;;;9.53;;
29030;SDS011;16122;50.236;11.734;2023-08-20T03:06:14;10.10;;;9.10;;
29030;SDS011;16122;50.236;11.734;2023-08-20T03:08:40;9.07;;;8.17;;
29030;SDS011;16122;50.236;11.734;2023-08-20T03:11:06;9.70;;;8.90;;
29030;SDS011;16122;50.236;11.734;2023-08-20T03:13:32;10.70;;;8.57;;
29030;SDS011;16122;50.236;11.734;2023-08-20T03:15:58;10.67;;;8.77;;
29030;SDS011;16122;50.236;11.734;2023-08-20T03:18:24;9.80;;;9.00;;
29030;SDS011;16122;50.236;11.734;2023-08-20T03:20:50;11.00;;;10.00;;
29030;SDS011;16122;50.236;11.734;2023-08-20T03:23:15;11.23;;;10.10;;
29030;SDS011;16122;50.236;11.734;2023-08-20T03:25:41;12.10;;;9.60;;
29030;SDS011;16122;50.236;11.734;2023-08-20T03:28:07;10.30;;;9.30;;
29030;SDS011;16122;50.236;11.734;2023-08-20T03:30:35;10.50;;;9.50;;
29030;SDS011;16122;50.236;11.734;2023-08-20T03:33:02;10.10;;;9.20;;
29030;SDS011;16122;50.236;11.734;2023-08-20T03:35:30;9.73;;;8.83;;
29030;SDS011;16122;50.236;11.734;2023-08-20T03:37:57;12.57;;;9.00;;
29030;SDS011;16122;50.236;11.734;2023-08-20T03:40:22;9.87;;;8.93;;
29030;SDS011;16122;50.236;11.734;2023-08-20T03:42:48;12.80;;;9.13;;
29030;SDS011;16122;50.236;11.734;2023-08-20T03:45:16;11.13;;;9.87;;
29030;SDS011;16122;50.236;11.734;2023-08-20T03:47:42;10.40;;;9.30;;
29030;SDS011;16122;50.236;11.734;2023-08-20T03:50:09;10.00;;;9.10;;
29030;SDS011;16122;50.236;11.734;2023-08-20T03:52:35;11.50;;;9.80;;
29030;SDS011;16122;50.236;11.734;2023-08-20T03:55:02;12.20;;;9.10;;
29030;SDS011;16122;50.236;11.734;2023-08-20T03:57:28;9.40;;;8.50;;
29030;SDS011;16122;50.236;11.734;2023-08-20T03:59:54;8.93;;;8.23;;
29030;SDS011;16122;50.236;11.734;2023-08-20T04:02:19;10.20;;;9.20;;
29030;SDS011;16122;50.236;11.734;2023-08-20T04:04:45;10.23;;;9.23;;
29030;SDS011;16122;50.236;11.734;2023-08-20T04:07:12;8.90;;;8.00;;
29030;SDS011;16122;50.236;11.734;2023-08-20T04:09:37;10.17;;;8.87;;
29030;SDS011;16122;50.236;11.734;2023-08-20T04:12:04;10.40;;;9.47;;
29030;SDS011;16122;50.236;11.734;2023-08-20T04:14:31;10.30;;;9.37;;
29030;SDS011;16122;50.236;11.734;2023-08-20T04:16:57;9.90;;;9.03;;
29030;SDS011;16122;50.236;11.734;2023-08-20T04:19:23;8.90;;;8.07;;
29030;SDS011;16122;50.236;11.734;2023-08-20T04:21:49;10.40;;;9.27;;
29030;SDS011;16122;50.236;11.734;2023-08-20T04:24:16;10.60;;;9.43;;
29030;SDS011;16122;50.236;11.734;2023-08-20T04:26:42;11.10;;;9.77;;
29030;SDS011;16122;50.236;11.734;2023-08-20T04:29:09;11.10;;;10.00;;
29030;SDS011;16122;50.236;11.734;2023-08-20T04:31:35;11.10;;;9.40;;
29030;SDS011;16122;50.236;11.734;2023-08-20T04:34:06;14.37;;;10.50;;
29030;SDS011;16122;50.236;11.734;2023-08-20T04:36:38;14.23;;;11.07;;
29030;SDS011;16122;50.236;11.734;2023-08-20T04:39:04;12.93;;;11.40;;
29030;SDS011;16122;50.236;11.734;2023-08-20T04:41:33;14.23;;;11.30;;
29030;SDS011;16122;50.236;11.734;2023-08-20T04:43:59;15.27;;;11.80;;
29030;SDS011;16122;50.236;11.734;2023-08-20T04:46:25;15.90;;;10.83;;
29030;SDS011;16122;50.236;11.734;2023-08-20T04:48:51;10.73;;;9.80;;
29030;SDS011;16122;50.236;11.734;2023-08-20T04:51:18;14.57;;;9.83;;
29030;SDS011;16122;50.236;11.734;2023-08-20T04:53:44;11.17;;;10.07;;
29030;SDS011;16122;50.236;11.734;2023-08-20T04:56:10;12.10;;;10.90;;
29030;SDS011;16122;50.236;11.734;2023-08-20T04:58:36;14.13;;;11.27;;
29030;SDS011;16122;50.236;11.734;2023-08-20T05:01:02;12.63;;;11.20;;
29030;SDS011;16122;50.236;11.734;2023-08-20T05:03:29;12.80;;;11.20;;
29030;SDS011;16122;50.236;11.734;2023-08-20T05:05:55;12.23;;;11.03;;
29030;SDS011;16122;50.236;11.734;2023-08-20T05:08:21;12.87;;;11.70;;
29030;SDS011;16122;50.236;11.734;2023-08-20T05:10:49;16.90;;;11.97;;
29030;SDS011;16122;50.236;11.734;2023-08-20T05:13:16;11.97;;;10.73;;
29030;SDS011;16122;50.236;11.734;2023-08-20T05:15:42;16.50;;;10.90;;
29030;SDS011;16122;50.236;11.734;2023-08-20T05:18:08;12.80;;;11.60;;
29030;SDS011;16122;50.236;11.734;2023-08-20T05:20:34;13.23;;;11.90;;
29030;SDS011;16122;50.236;11.734;2023-08-20T05:23:00;12.07;;;10.97;;
29030;SDS011;16122;50.236;11.734;2023-08-20T05:25:26;15.57;;;11.23;;
29030;SDS011;16122;50.236;11.734;2023-08-20T05:27:51;13.70;;;11.60;;
29030;SDS011;16122;50.236;11.734;2023-08-20T05:30:17;12.63;;;11.13;;
29030;SDS011;16122;50.236;11.734;2023-08-20T05:32:43;14.33;;;11.40;;
29030;SDS011;16122;50.236;11.734;2023-08-20T05:35:10;14.40;;;12.83;;
29030;SDS011;16122;50.236;11.734;2023-08-20T05:37:37;19.17;;;12.53;;
29030;SDS011;16122;50.236;11.734;2023-08-20T05:40:03;14.17;;;12.07;;
29030;SDS011;16122;50.236;11.734;2023-08-20T05:42:32;13.87;;;11.40;;
29030;SDS011;16122;50.236;11.734;2023-08-20T05:45:02;15.00;;;12.17;;
29030;SDS011;16122;50.236;11.734;2023-08-20T05:47:28;12.90;;;11.70;;
29030;SDS011;16122;50.236;11.734;2023-08-20T05:49:54;13.57;;;11.63;;
29030;SDS011;16122;50.236;11.734;2023-08-20T05:52:20;13.57;;;11.60;;
29030;SDS011;16122;50.236;11.734;2023-08-20T05:54:46;16.40;;;11.37;;
29030;SDS011;16122;50.236;11.734;2023-08-20T05:57:14;15.37;;;11.57;;
29030;SDS011;16122;50.236;11.734;2023-08-20T05:59:41;12.60;;;11.30;;
29030;SDS011;16122;50.236;11.734;2023-08-20T06:02:07;14.57;;;11.57;;
29030;SDS011;16122;50.236;11.734;2023-08-20T06:04:32;13.20;;;11.60;;
29030;SDS011;16122;50.236;11.734;2023-08-20T06:06:58;11.50;;;10.30;;
29030;SDS011;16122;50.236;11.734;2023-08-20T06:09:24;12.43;;;11.13;;
29030;SDS011;16122;50.236;11.734;2023-08-20T06:11:50;12.67;;;11.40;;
29030;SDS011;16122;50.236;11.734;2023-08-20T06:14:16;14.00;;;12.50;;
29030;SDS011;16122;50.236;11.734;2023-08-20T06:16:42;13.97;;;11.07;;
29030;SDS011;16122;50.236;11.734;2023-08-20T06:19:09;15.77;;;11.50;;
29030;SDS011;16122;50.236;11.734;2023-08-20T06:21:35;14.27;;;12.77;;
29030;SDS011;16122;50.236;11.734;2023-08-20T06:24:00;14.53;;;12.43;;
29030;SDS011;16122;50.236;11.734;2023-08-20T06:26:26;17.40;;;15.00;;
29030;SDS011;16122;50.236;11.734;2023-08-20T06:28:52;21.80;;;14.77;;
29030;SDS011;16122;50.236;11.734;2023-08-20T06:31:18;17.03;;;14.30;;
29030;SDS011;16122;50.236;11.734;2023-08-20T06:33:44;20.10;;;14.40;;
29030;SDS011;16122;50.236;11.734;2023-08-20T06:36:09;18.13;;;15.77;;
29030;SDS011;16122;50.236;11.734;2023-08-20T06:38:35;17.43;;;15.00;;
29030;SDS011;16122;50.236;11.734;2023-08-20T06:41:01;16.80;;;15.00;;
29030;SDS011;16122;50.236;11.734;2023-08-20T06:43:27;17.70;;;14.90;;
29030;SDS011;16122;50.236;11.734;2023-08-20T06:45:53;19.43;;;16.43;;
29030;SDS011;16122;50.236;11.734;2023-08-20T06:48:19;17.93;;;15.13;;
29030;SDS011;16122;50.236;11.734;2023-08-20T06:50:47;21.73;;;16.53;;
29030;SDS011;16122;50.236;11.734;2023-08-20T06:53:13;19.80;;;17.67;;
29030;SDS011;16122;50.236;11.734;2023-08-20T06:55:38;20.63;;;18.47;;
29030;SDS011;16122;50.236;11.734;2023-08-20T06:58:04;21.17;;;18.90;;
29030;SDS011;16122;50.236;11.734;2023-08-20T07:00:30;22.87;;;18.80;;
29030;SDS011;16122;50.236;11.734;2023-08-20T07:02:56;24.33;;;18.20;;
29030;SDS011;16122;50.236;11.734;2023-08-20T07:05:22;22.00;;;19.37;;
29030;SDS011;16122;50.236;11.734;2023-08-20T07:07:47;20.47;;;18.30;;
29030;SDS011;16122;50.236;11.734;2023-08-20T07:10:13;21.93;;;19.03;;
29030;SDS011;16122;50.236;11.734;2023-08-20T07:12:39;22.80;;;20.20;;
29030;SDS011;16122;50.236;11.734;2023-08-20T07:15:06;21.67;;;19.07;;
29030;SDS011;16122;50.236;11.734;2023-08-20T07:17:32;21.87;;;19.57;;
29030;SDS011;16122;50.236;11.734;2023-08-20T07:19:58;23.77;;;20.90;;
29030;SDS011;16122;50.236;11.734;2023-08-20T07:22:23;23.00;;;20.60;;
29030;SDS011;16122;50.236;11.734;2023-08-20T07:24:49;27.10;;;22.53;;
29030;SDS011;16122;50.236;11.734;2023-08-20T07:27:15;28.30;;;22.60;;
29030;SDS011;16122;50.236;11.734;2023-08-20T07:29:42;30.10;;;24.37;;
29030;SDS011;16122;50.236;11.734;2023-08-20T07:32:07;30.80;;;24.40;;
29030;SDS011;16122;50.236;11.734;2023-08-20T07:34:33;31.60;;;25.90;;
29030;SDS011;16122;50.236;11.734;2023-08-20T07:36:59;27.90;;;24.30;;
29030;SDS011;16122;50.236;11.734;2023-08-20T07:39:26;30.07;;;24.10;;
29030;SDS011;16122;50.236;11.734;2023-08-20T07:41:52;24.63;;;22.00;;
29030;SDS011;16122;50.236;11.734;2023-08-20T07:44:18;30.50;;;25.53;;
29030;SDS011;16122;50.236;11.734;2023-08-20T07:46:44;28.90;;;24.30;;
29030;SDS011;16122;50.236;11.734;2023-08-20T07:49:09;31.23;;;26.03;;
29030;SDS011;16122;50.236;11.734;2023-08-20T07:51:35;27.93;;;24.87;;
29030;SDS011;16122;50.236;11.734;2023-08-20T07:54:01;31.53;;;25.43;;
29030;SDS011;16122;50.236;11.734;2023-08-20T07:56:27;32.63;;;27.87;;
29030;SDS011;16122;50.236;11.734;2023-08-20T07:58:53;34.13;;;27.90;;
29030;SDS011;16122;50.236;11.734;2023-08-20T08:01:19;33.40;;;27.33;;
29030;SDS011;16122;50.236;11.734;2023-08-20T08:03:44;35.40;;;28.50;;
29030;SDS011;16122;50.236;11.734;2023-08-20T08:06:10;32.93;;;27.27;;
29030;SDS011;16122;50.236;11.734;2023-08-20T08:08:37;35.37;;;28.70;;
29030;SDS011;16122;50.236;11.734;2023-08-20T08:11:07;36.23;;;30.67;;
29030;SDS011;16122;50.236;11.734;2023-08-20T08:13:32;33.80;;;29.37;;
29030;SDS011;16122;50.236;11.734;2023-08-20T08:15:58;30.57;;;26.67;;
29030;SDS011;16122;50.236;11.734;2023-08-20T08:18:24;32.17;;;28.80;;
29030;SDS011;16122;50.236;11.734;2023-08-20T08:20:50;39.13;;;29.53;;
29030;SDS011;16122;50.236;11.734;2023-08-20T08:23:15;33.20;;;29.33;;
29030;SDS011;16122;50.236;11.734;2023-08-20T08:25:41;40.23;;;30.10;;
29030;SDS011;16122;50.236;11.734;2023-08-20T08:28:07;35.80;;;30.00;;
29030;SDS011;16122;50.236;11.734;2023-08-20T08:30:33;33.80;;;30.20;;
29030;SDS011;16122;50.236;11.734;2023-08-20T08:32:59;38.93;;;30.80;;
29030;SDS011;16122;50.236;11.734;2023-08-20T08:35:25;34.97;;;30.03;;
29030;SDS011;16122;50.236;11.734;2023-08-20T08:37:51;33.23;;;27.00;;
29030;SDS011;16122;50.236;11.734;2023-08-20T08:40:16;33.33;;;26.90;;
29030;SDS011;16122;50.236;11.734;2023-08-20T08:42:43;33.13;;;27.90;;
29030;SDS011;16122;50.236;11.734;2023-08-20T08:45:13;41.97;;;30.80;;
29030;SDS011;16122;50.236;11.734;2023-08-20T08:47:39;37.03;;;29.67;;
29030;SDS011;16122;50.236;11.734;2023-08-20T08:50:05;44.10;;;30.90;;
29030;SDS011;16122;50.236;11.734;2023-08-20T08:52:32;40.43;;;28.57;;
29030;SDS011;16122;50.236;11.734;2023-08-20T08:55:00;46.00;;;30.30;;
29030;SDS011;16122;50.236;11.734;2023-08-20T08:57:26;45.53;;;29.27;;
29030;SDS011;16122;50.236;11.734;2023-08-20T08:59:52;34.30;;;28.83;;
29030;SDS011;16122;50.236;11.734;2023-08-20T09:02:18;40.60;;;29.17;;
29030;SDS011;16122;50.236;11.734;2023-08-20T09:04:44;41.27;;;30.20;;
29030;SDS011;16122;50.236;11.734;2023-08-20T09:07:11;42.73;;;29.77;;
29030;SDS011;16122;50.236;11.734;2023-08-20T09:09:41;39.83;;;29.63;;
29030;SDS011;16122;50.236;11.734;2023-08-20T09:12:15;37.37;;;28.17;;
29030;SDS011;16122;50.236;11.734;2023-08-20T09:14:45;39.47;;;26.90;;
29030;SDS011;16122;50.236;11.734;2023-08-20T09:17:13;40.07;;;28.70;;
29030;SDS011;16122;50.236;11.734;2023-08-20T09:19:39;38.70;;;28.80;;
29030;SDS011;16122;50.236;11.734;2023-08-20T09:22:07;39.67;;;29.60;;
29030;SDS011;16122;50.236;11.734;2023-08-20T09:24:33;40.03;;;28.37;;
29030;SDS011;16122;50.236;11.734;2023-08-20T09:27:17;38.53;;;28.80;;
29030;SDS011;16122;50.236;11.734;2023-08-20T09:29:46;39.13;;;28.53;;
29030;SDS011;16122;50.236;11.734;2023-08-20T09:32:23;34.97;;;26.80;;
29030;SDS011;16122;50.236;11.734;2023-08-20T09:34:51;33.67;;;27.87;;
29030;SDS011;16122;50.236;11.734;2023-08-20T09:37:19;34.40;;;27.33;;
29030;SDS011;16122;50.236;11.734;2023-08-20T09:39:46;32.47;;;26.47;;
29030;SDS011;16122;50.236;11.734;2023-08-20T09:42:12;35.97;;;26.90;;
29030;SDS011;16122;50.236;11.734;2023-08-20T09:44:40;33.60;;;25.77;;
29030;SDS011;16122;50.236;11.734;2023-08-20T09:47:08;35.57;;;25.03;;
29030;SDS011;16122;50.236;11.734;2023-08-20T09:49:44;30.83;;;26.70;;
29030;SDS011;16122;50.236;11.734;2023-08-20T09:52:16;33.03;;;25.00;;
29030;SDS011;16122;50.236;11.734;2023-08-20T09:57:36;29.53;;;24.60;;
29030;SDS011;16122;50.236;11.734;2023-08-20T10:00:08;29.90;;;25.20;;
29030;SDS011;16122;50.236;11.734;2023-08-20T10:02:41;30.97;;;24.50;;
29030;SDS011;16122;50.236;11.734;2023-08-20T10:05:08;31.30;;;24.50;;
29030;SDS011;16122;50.236;11.734;2023-08-20T10:07:35;30.37;;;23.90;;
29030;SDS011;16122;50.236;11.734;2023-08-20T10:10:02;27.50;;;23.70;;
29030;SDS011;16122;50.236;11.734;2023-08-20T10:12:33;28.10;;;21.80;;
29030;SDS011;16122;50.236;11.734;2023-08-20T10:15:00;30.43;;;24.17;;
29030;SDS011;16122;50.236;11.734;2023-08-20T10:17:29;25.77;;;22.93;;
29030;SDS011;16122;50.236;11.734;2023-08-20T10:19:57;28.03;;;23.20;;
29030;SDS011;16122;50.236;11.734;2023-08-20T10:22:31;26.80;;;21.80;;
29030;SDS011;16122;50.236;11.734;2023-08-20T10:24:58;25.63;;;22.40;;
29030;SDS011;16122;50.236;11.734;2023-08-20T10:27:28;27.50;;;22.97;;
29030;SDS011;16122;50.236;11.734;2023-08-20T10:29:57;29.50;;;21.43;;
29030;SDS011;16122;50.236;11.734;2023-08-20T10:32:43;25.07;;;21.27;;
29030;SDS011;16122;50.236;11.734;2023-08-20T10:35:29;24.53;;;19.93;;
29030;SDS011;16122;50.236;11.734;2023-08-20T10:38:13;25.50;;;21.70;;
29030;SDS011;16122;50.236;11.734;2023-08-20T10:43:25;26.17;;;19.93;;
29030;SDS011;16122;50.236;11.734;2023-08-20T10:46:02;23.07;;;20.60;;
29030;SDS011;16122;50.236;11.734;2023-08-20T10:48:29;21.30;;;19.03;;
29030;SDS011;16122;50.236;11.734;2023-08-20T10:50:57;24.83;;;20.03;;
29030;SDS011;16122;50.236;11.734;2023-08-20T10:53:22;23.53;;;20.93;;
29030;SDS011;16122;50.236;11.734;2023-08-20T10:55:49;24.40;;;21.70;;
29030;SDS011;16122;50.236;11.734;2023-08-20T10:58:15;25.20;;;20.70;;
29030;SDS011;16122;50.236;11.734;2023-08-20T11:00:42;21.80;;;19.60;;
29030;SDS011;16122;50.236;11.734;2023-08-20T11:03:08;23.90;;;20.17;;
29030;SDS011;16122;50.236;11.734;2023-08-20T11:05:34;25.17;;;20.87;;
29030;SDS011;16122;50.236;11.734;2023-08-20T11:08:00;25.07;;;21.30;;
29030;SDS011;16122;50.236;11.734;2023-08-20T11:10:28;21.33;;;19.03;;
29030;SDS011;16122;50.236;11.734;2023-08-20T11:12:54;23.40;;;20.53;;
29030;SDS011;16122;50.236;11.734;2023-08-20T11:15:20;22.60;;;20.10;;
29030;SDS011;16122;50.236;11.734;2023-08-20T11:17:47;22.63;;;20.27;;
29030;SDS011;16122;50.236;11.734;2023-08-20T11:20:16;23.10;;;18.73;;
29030;SDS011;16122;50.236;11.734;2023-08-20T11:22:42;22.37;;;18.23;;
29030;SDS011;16122;50.236;11.734;2023-08-20T11:25:11;20.80;;;18.33;;
29030;SDS011;16122;50.236;11.734;2023-08-20T11:27:41;22.63;;;17.90;;
29030;SDS011;16122;50.236;11.734;2023-08-20T11:30:08;20.40;;;18.33;;
29030;SDS011;16122;50.236;11.734;2023-08-20T11:32:37;20.50;;;17.03;;
29030;SDS011;16122;50.236;11.734;2023-08-20T11:35:03;22.30;;;18.90;;
29030;SDS011;16122;50.236;11.734;2023-08-20T11:37:30;20.30;;;17.40;;
29030;SDS011;16122;50.236;11.734;2023-08-20T11:39:56;21.57;;;18.20;;
29030;SDS011;16122;50.236;11.734;2023-08-20T11:42:22;22.40;;;16.30;;
29030;SDS011;16122;50.236;11.734;2023-08-20T11:44:48;18.80;;;16.83;;
29030;SDS011;16122;50.236;11.734;2023-08-20T11:47:18;17.97;;;15.80;;
29030;SDS011;16122;50.236;11.734;2023-08-20T11:49:44;18.43;;;16.53;;
29030;SDS011;16122;50.236;11.734;2023-08-20T11:52:10;18.57;;;16.67;;
29030;SDS011;16122;50.236;11.734;2023-08-20T11:54:38;16.70;;;15.10;;
29030;SDS011;16122;50.236;11.734;2023-08-20T11:57:04;20.87;;;17.67;;
29030;SDS011;16122;50.236;11.734;2023-08-20T11:59:31;18.80;;;16.77;;
29030;SDS011;16122;50.236;11.734;2023-08-20T12:01:58;18.00;;;16.17;;
29030;SDS011;16122;50.236;11.734;2023-08-20T12:04:26;17.60;;;15.70;;
29030;SDS011;16122;50.236;11.734;2023-08-20T12:07:03;16.40;;;14.70;;
29030;SDS011;16122;50.236;11.734;2023-08-20T12:09:31;16.50;;;14.90;;
29030;SDS011;16122;50.236;11.734;2023-08-20T12:11:57;16.03;;;14.33;;
29030;SDS011;16122;50.236;11.734;2023-08-20T12:14:24;15.13;;;13.53;;
29030;SDS011;16122;50.236;11.734;2023-08-20T12:16:50;17.77;;;14.20;;
29030;SDS011;16122;50.236;11.734;2023-08-20T12:19:16;16.60;;;14.60;;
29030;SDS011;16122;50.236;11.734;2023-08-20T12:21:42;14.33;;;12.93;;
29030;SDS011;16122;50.236;11.734;2023-08-20T12:24:09;14.60;;;13.00;;
29030;SDS011;16122;50.236;11.734;2023-08-20T12:26:39;15.13;;;12.40;;
29030;SDS011;16122;50.236;11.734;2023-08-20T12:29:06;12.93;;;11.73;;
29030;SDS011;16122;50.236;11.734;2023-08-20T12:31:32;12.90;;;11.70;;
29030;SDS011;16122;50.236;11.734;2023-08-20T12:33:58;12.57;;;11.30;;
29030;SDS011;16122;50.236;11.734;2023-08-20T12:36:24;14.43;;;11.70;;
29030;SDS011;16122;50.236;11.734;2023-08-20T12:38:50;14.67;;;11.00;;
29030;SDS011;16122;50.236;11.734;2023-08-20T12:41:16;9.90;;;8.73;;
29030;SDS011;16122;50.236;11.734;2023-08-20T12:43:42;9.80;;;8.80;;
29030;SDS011;16122;50.236;11.734;2023-08-20T12:46:08;10.00;;;8.97;;
29030;SDS011;16122;50.236;11.734;2023-08-20T12:48:33;9.23;;;8.23;;
29030;SDS011;16122;50.236;11.734;2023-08-20T12:50:59;12.00;;;9.90;;
29030;SDS011;16122;50.236;11.734;2023-08-20T12:53:25;10.87;;;9.07;;
29030;SDS011;16122;50.236;11.734;2023-08-20T12:55:52;10.40;;;8.37;;
29030;SDS011;16122;50.236;11.734;2023-08-20T12:58:17;11.17;;;8.13;;
29030;SDS011;16122;50.236;11.734;2023-08-20T13:00:43;9.17;;;8.27;;
29030;SDS011;16122;50.236;11.734;2023-08-20T13:03:09;12.30;;;8.40;;
29030;SDS011;16122;50.236;11.734;2023-08-20T13:05:35;9.33;;;7.63;;
29030;SDS011;16122;50.236;11.734;2023-08-20T13:08:02;9.53;;;8.53;;
29030;SDS011;16122;50.236;11.734;2023-08-20T13:10:28;8.63;;;7.83;;
29030;SDS011;16122;50.236;11.734;2023-08-20T13:12:54;9.13;;;8.07;;
29030;SDS011;16122;50.236;11.734;2023-08-20T13:15:27;7.80;;;7.10;;
29030;SDS011;16122;50.236;11.734;2023-08-20T13:17:53;10.70;;;8.27;;
29030;SDS011;16122;50.236;11.734;2023-08-20T13:20:20;9.10;;;8.20;;
29030;SDS011;16122;50.236;11.734;2023-08-20T13:22:48;9.07;;;8.10;;
29030;SDS011;16122;50.236;11.734;2023-08-20T13:25:15;9.47;;;8.17;;
29030;SDS011;16122;50.236;11.734;2023-08-20T13:27:41;11.00;;;7.63;;
29030;SDS011;16122;50.236;11.734;2023-08-20T13:30:07;8.97;;;8.17;;
29030;SDS011;16122;50.236;11.734;2023-08-20T13:32:35;9.53;;;8.47;;
29030;SDS011;16122;50.236;11.734;2023-08-20T13:35:01;10.07;;;8.43;;
29030;SDS011;16122;50.236;11.734;2023-08-20T13:37:29;8.47;;;7.40;;
29030;SDS011;16122;50.236;11.734;2023-08-20T13:39:56;8.50;;;7.70;;
29030;SDS011;16122;50.236;11.734;2023-08-20T13:42:23;8.73;;;7.60;;
29030;SDS011;16122;50.236;11.734;2023-08-20T13:44:48;7.97;;;7.17;;
29030;SDS011;16122;50.236;11.734;2023-08-20T13:47:14;12.63;;;8.00;;
29030;SDS011;16122;50.236;11.734;2023-08-20T13:49:40;8.30;;;7.50;;
29030;SDS011;16122;50.236;11.734;2023-08-20T13:52:06;9.60;;;8.17;;
29030;SDS011;16122;50.236;11.734;2023-08-20T13:54:34;9.43;;;6.90;;
29030;SDS011;16122;50.236;11.734;2023-08-20T13:57:01;8.37;;;7.30;;
29030;SDS011;16122;50.236;11.734;2023-08-20T13:59:29;11.83;;;7.13;;
29030;SDS011;16122;50.236;11.734;2023-08-20T14:01:55;8.07;;;7.20;;
29030;SDS011;16122;50.236;11.734;2023-08-20T14:04:21;9.20;;;8.23;;
29030;SDS011;16122;50.236;11.734;2023-08-20T14:06:46;8.87;;;7.97;;
29030;SDS011;16122;50.236;11.734;2023-08-20T14:09:13;13.37;;;8.13;;
29030;SDS011;16122;50.236;11.734;2023-08-20T14:11:39;8.77;;;7.17;;
29030;SDS011;16122;50.236;11.734;2023-08-20T14:14:05;7.77;;;7.07;;
29030;SDS011;16122;50.236;11.734;2023-08-20T14:16:31;8.97;;;8.10;;
29030;SDS011;16122;50.236;11.734;2023-08-20T14:18:57;9.50;;;7.20;;
29030;SDS011;16122;50.236;11.734;2023-08-20T14:21:23;10.50;;;8.10;;
29030;SDS011;16122;50.236;11.734;2023-08-20T14:23:48;11.30;;;7.07;;
29030;SDS011;16122;50.236;11.734;2023-08-20T14:26:14;8.70;;;7.60;;